createdAt,value
2018-09-13T00:01:06.678Z,3.60
2018-09-13T00:03:36.150Z,4.23
2018-09-13T00:06:05.400Z,3.73
2018-09-13T00:08:34.742Z,4.50
2018-09-13T00:11:04.314Z,3.93
2018-09-13T00:13:33.930Z,2.97
2018-09-13T00:16:03.332Z,3.83
2018-09-13T00:18:32.863Z,3.90
2018-09-13T00:21:02.334Z,3.80
2018-09-13T00:23:31.854Z,3.97
2018-09-13T00:26:01.210Z,3.50
2018-09-13T00:28:30.503Z,3.40
2018-09-13T00:30:59.877Z,3.57
2018-09-13T00:33:29.115Z,3.43
2018-09-13T00:35:58.451Z,4.63
2018-09-13T00:38:27.727Z,3.97
2018-09-13T00:40:58.071Z,3.23
2018-09-13T00:43:27.410Z,4.10
2018-09-13T00:45:56.731Z,4.00
2018-09-13T00:48:26.002Z,3.63
2018-09-13T00:50:55.314Z,3.37
2018-09-13T00:53:24.557Z,4.30
2018-09-13T00:55:53.978Z,4.00
2018-09-13T00:58:23.372Z,3.60
2018-09-13T01:00:52.707Z,3.27
2018-09-13T01:03:22.164Z,4.23
2018-09-13T01:05:51.506Z,3.53
2018-09-13T01:08:21.074Z,3.80
2018-09-13T01:10:50.423Z,3.80
2018-09-13T01:13:19.747Z,5.00
2018-09-13T01:15:49.119Z,4.70
2018-09-13T01:18:18.566Z,4.30
2018-09-13T01:20:47.907Z,4.30
2018-09-13T01:23:17.361Z,4.50
2018-09-13T01:25:46.726Z,3.77
2018-09-13T01:28:16.155Z,3.80
2018-09-13T01:30:45.572Z,4.70
2018-09-13T01:33:14.966Z,3.80
2018-09-13T01:35:44.265Z,4.03
2018-09-13T01:38:13.404Z,4.00
2018-09-13T01:40:42.675Z,3.67
2018-09-13T01:43:11.962Z,4.10
2018-09-13T01:45:41.365Z,3.83
2018-09-13T01:48:11.268Z,4.10
2018-09-13T01:50:40.613Z,5.03
2018-09-13T01:53:09.946Z,4.17
2018-09-13T01:55:40.420Z,3.63
2018-09-13T01:58:09.984Z,3.73
2018-09-13T02:00:39.219Z,3.97
2018-09-13T02:03:08.519Z,4.90
2018-09-13T02:05:37.794Z,3.50
2018-09-13T02:08:07.254Z,4.80
2018-09-13T02:10:36.729Z,3.10
2018-09-13T02:13:06.497Z,3.77
2018-09-13T02:15:35.953Z,4.00
2018-09-13T02:18:05.400Z,4.00
2018-09-13T02:20:35.456Z,3.87
2018-09-13T02:23:04.754Z,3.97
2018-09-13T02:25:34.052Z,3.80
2018-09-13T02:28:03.403Z,4.10
2018-09-13T02:30:32.908Z,4.07
2018-09-13T02:33:02.152Z,4.40
2018-09-13T02:35:31.489Z,5.37
2018-09-13T02:38:00.868Z,4.70
2018-09-13T02:40:31.283Z,4.77
2018-09-13T02:43:00.685Z,3.50
2018-09-13T02:45:30.156Z,4.83
2018-09-13T02:47:59.746Z,4.10
2018-09-13T02:50:29.228Z,3.83
2018-09-13T02:52:58.728Z,4.10
2018-09-13T02:55:28.106Z,4.20
2018-09-13T02:57:57.420Z,4.00
2018-09-13T03:00:26.670Z,4.00
2018-09-13T03:02:56.033Z,4.23
2018-09-13T03:05:25.246Z,5.00
2018-09-13T03:07:54.690Z,3.90
2018-09-13T03:10:24.267Z,4.83
2018-09-13T03:12:53.664Z,4.23
2018-09-13T03:15:22.975Z,3.90
2018-09-13T03:17:52.528Z,5.13
2018-09-13T03:20:22.095Z,5.30
2018-09-13T03:22:51.473Z,4.30
2018-09-13T03:25:20.842Z,4.10
2018-09-13T03:27:50.245Z,5.20
2018-09-13T03:30:19.670Z,3.90
2018-09-13T03:32:49.008Z,3.73
2018-09-13T03:35:18.782Z,4.00
2018-09-13T03:37:48.084Z,4.33
2018-09-13T03:40:17.501Z,4.27
2018-09-13T03:42:46.911Z,3.97
2018-09-13T03:45:16.410Z,4.20
2018-09-13T03:47:45.724Z,4.17
2018-09-13T03:50:15.165Z,4.27
2018-09-13T03:52:45.407Z,4.93
2018-09-13T03:55:14.885Z,4.70
2018-09-13T03:57:44.413Z,4.70
2018-09-13T04:00:13.897Z,6.00
2018-09-13T04:02:43.255Z,4.17
2018-09-13T04:05:14.983Z,4.77
2018-09-13T04:07:44.532Z,4.23
2018-09-13T04:10:13.729Z,4.30
2018-09-13T04:12:43.928Z,5.10
2018-09-13T04:15:13.263Z,5.60
2018-09-13T04:17:42.665Z,4.50
2018-09-13T04:20:11.960Z,5.10
2018-09-13T04:22:41.256Z,4.83
2018-09-13T04:25:10.549Z,4.83
2018-09-13T04:27:39.902Z,3.93
2018-09-13T04:30:09.296Z,4.80
2018-09-13T04:32:39.324Z,3.80
2018-09-13T04:35:08.670Z,4.73
2018-09-13T04:37:37.958Z,4.40
2018-09-13T04:40:07.300Z,4.27
2018-09-13T04:42:36.728Z,5.40
2018-09-13T04:45:06.346Z,4.20
2018-09-13T04:47:35.724Z,5.23
2018-09-13T04:50:05.577Z,4.23
2018-09-13T04:52:35.186Z,5.40
2018-09-13T04:55:04.536Z,4.30
2018-09-13T04:57:34.095Z,4.57
2018-09-13T05:00:03.481Z,5.47
2018-09-13T05:02:32.887Z,4.10
2018-09-13T05:05:02.080Z,4.57
2018-09-13T05:07:31.504Z,4.77
2018-09-13T05:10:00.840Z,4.20
2018-09-13T05:12:30.155Z,4.97
2018-09-13T05:15:00.179Z,4.60
2018-09-13T05:17:29.461Z,4.60
2018-09-13T05:19:58.796Z,4.47
2018-09-13T05:22:28.727Z,4.20
2018-09-13T05:24:58.066Z,4.20
2018-09-13T05:27:27.470Z,5.40
2018-09-13T05:29:57.434Z,4.10
2018-09-13T05:32:26.791Z,4.13
2018-09-13T05:34:56.481Z,4.80
2018-09-13T05:37:25.756Z,3.60
2018-09-13T05:39:55.104Z,5.00
2018-09-13T05:42:24.488Z,4.57
2018-09-13T05:44:53.879Z,4.43
2018-09-13T05:47:23.177Z,4.57
2018-09-13T05:49:52.507Z,4.03
2018-09-13T05:52:21.725Z,4.70
2018-09-13T05:54:51.310Z,4.50
2018-09-13T05:57:20.649Z,4.53
2018-09-13T05:59:49.781Z,4.83
2018-09-13T06:02:19.124Z,4.47
2018-09-13T06:04:48.453Z,3.43
2018-09-13T06:07:17.878Z,4.53
2018-09-13T06:09:47.409Z,4.43
2018-09-13T06:12:17.373Z,4.07
2018-09-13T06:14:47.969Z,4.50
2018-09-13T06:17:17.322Z,4.40
2018-09-13T06:19:46.564Z,5.30
2018-09-13T06:22:20.646Z,4.90
2018-09-13T06:24:50.015Z,4.43
2018-09-13T06:27:19.407Z,4.47
2018-09-13T06:29:48.904Z,5.50
2018-09-13T06:32:18.628Z,6.90
2018-09-13T06:34:47.973Z,6.50
2018-09-13T06:37:17.691Z,8.30
2018-09-13T06:39:47.183Z,7.13
2018-09-13T06:42:16.746Z,6.27
2018-09-13T06:44:46.607Z,7.00
2018-09-13T06:47:15.786Z,7.10
2018-09-13T06:49:46.358Z,7.50
2018-09-13T06:52:15.638Z,7.00
2018-09-13T06:54:45.357Z,7.53
2018-09-13T06:57:14.767Z,5.97
2018-09-13T06:59:44.266Z,6.43
2018-09-13T07:02:13.707Z,7.37
2018-09-13T07:04:43.003Z,6.50
2018-09-13T07:07:12.244Z,6.17
2018-09-13T07:09:41.498Z,16.07
2018-09-13T07:12:10.872Z,9.10
2018-09-13T07:14:40.230Z,10.07
2018-09-13T07:17:09.644Z,6.90
2018-09-13T07:19:39.089Z,7.63
2018-09-13T07:22:08.368Z,9.80
2018-09-13T07:24:37.684Z,6.73
2018-09-13T07:27:07.110Z,5.80
2018-09-13T07:29:36.516Z,5.63
2018-09-13T07:32:05.912Z,6.70
2018-09-13T07:34:35.270Z,5.43
2018-09-13T07:37:04.812Z,6.47
2018-09-13T07:39:35.193Z,7.43
2018-09-13T07:42:04.665Z,6.10
2018-09-13T07:44:34.036Z,6.20
2018-09-13T07:47:03.571Z,6.47
2018-09-13T07:49:34.076Z,5.50
2018-09-13T07:52:04.274Z,6.53
2018-09-13T07:54:33.525Z,5.60
2018-09-13T07:57:02.790Z,5.53
2018-09-13T07:59:32.033Z,5.60
2018-09-13T08:02:01.371Z,5.10
2018-09-13T08:04:30.673Z,5.17
2018-09-13T08:07:00.655Z,5.60
2018-09-13T08:09:29.812Z,4.97
2018-09-13T08:11:59.403Z,4.63
2018-09-13T08:14:29.309Z,5.40
2018-09-13T08:16:58.773Z,5.00
2018-09-13T08:19:28.493Z,5.10
2018-09-13T08:21:57.982Z,6.37
2018-09-13T08:24:27.391Z,4.63
2018-09-13T08:26:56.818Z,5.13
2018-09-13T08:29:27.178Z,6.37
2018-09-13T08:31:56.670Z,5.30
2018-09-13T08:34:26.088Z,5.53
2018-09-13T08:36:55.649Z,5.67
2018-09-13T08:39:25.027Z,6.37
2018-09-13T08:41:54.301Z,5.60
2018-09-13T08:44:24.630Z,6.47
2018-09-13T08:46:53.982Z,7.07
2018-09-13T08:49:23.329Z,5.93
2018-09-13T08:51:52.737Z,6.30
2018-09-13T08:54:22.090Z,4.80
2018-09-13T08:56:51.872Z,5.80
2018-09-13T08:59:21.291Z,6.20
2018-09-13T09:01:50.683Z,8.40
2018-09-13T09:04:20.164Z,6.93
2018-09-13T09:06:49.560Z,5.57
2018-09-13T09:09:19.790Z,4.80
2018-09-13T09:11:49.376Z,5.37
2018-09-13T09:14:19.982Z,4.90
2018-09-13T09:16:49.306Z,6.20
2018-09-13T09:19:19.149Z,4.83
2018-09-13T09:21:48.549Z,4.90
2018-09-13T09:24:17.988Z,7.00
2018-09-13T09:26:47.368Z,5.20
2018-09-13T09:29:16.879Z,5.03
2018-09-13T09:31:46.305Z,4.27
2018-09-13T09:34:15.933Z,5.17
2018-09-13T09:36:45.286Z,4.57
2018-09-13T09:39:15.223Z,5.23
2018-09-13T09:41:44.662Z,4.40
2018-09-13T09:44:14.007Z,5.00
2018-09-13T09:46:43.365Z,4.83
2018-09-13T09:49:12.640Z,5.30
2018-09-13T09:51:41.913Z,4.33
2018-09-13T09:54:11.898Z,4.67
2018-09-13T09:56:41.200Z,4.80
2018-09-13T09:59:10.819Z,5.20
2018-09-13T10:01:45.113Z,5.37
2018-09-13T10:04:14.474Z,5.47
2018-09-13T10:06:44.493Z,7.40
2018-09-13T10:09:13.882Z,4.77
2018-09-13T10:11:43.453Z,5.13
2018-09-13T10:14:12.821Z,5.00
2018-09-13T10:16:47.092Z,5.10
2018-09-13T10:19:21.569Z,6.00
2018-09-13T10:21:56.064Z,4.83
2018-09-13T10:24:30.520Z,4.90
2018-09-13T10:27:04.908Z,4.30
2018-09-13T10:29:39.416Z,5.50
2018-09-13T10:32:14.627Z,4.57
2018-09-13T10:34:49.032Z,4.90
2018-09-13T10:39:26.159Z,5.50
2018-09-13T10:42:00.604Z,4.50
2018-09-13T10:44:35.120Z,5.00
2018-09-13T10:49:12.097Z,6.30
2018-09-13T10:51:46.623Z,5.07
2018-09-13T10:54:25.151Z,5.10
2018-09-13T10:56:54.502Z,6.90
2018-09-13T10:59:25.362Z,5.07
2018-09-13T11:01:55.088Z,4.90
2018-09-13T11:04:24.501Z,4.50
2018-09-13T11:06:53.760Z,5.30
2018-09-13T11:09:22.959Z,4.93
2018-09-13T11:11:52.475Z,4.77
2018-09-13T11:14:25.953Z,5.37
2018-09-13T11:16:55.491Z,3.97
2018-09-13T11:19:24.745Z,4.40
2018-09-13T11:21:54.328Z,4.60
2018-09-13T11:24:23.770Z,4.60
2018-09-13T11:26:53.119Z,5.07
2018-09-13T11:29:22.645Z,4.97
2018-09-13T11:31:52.857Z,4.77
2018-09-13T11:34:22.162Z,4.77
2018-09-13T11:36:52.432Z,4.67
2018-09-13T11:39:22.227Z,4.63
2018-09-13T11:41:53.815Z,4.40
2018-09-13T11:44:24.709Z,5.00
2018-09-13T11:46:53.994Z,4.50
2018-09-13T11:49:23.378Z,4.60
2018-09-13T11:51:53.121Z,4.30
2018-09-13T11:54:22.543Z,4.40
2018-09-13T11:56:52.123Z,4.30
2018-09-13T11:59:21.474Z,4.60
2018-09-13T12:01:51.576Z,4.13
2018-09-13T12:04:20.906Z,4.00
2018-09-13T12:06:50.545Z,4.23
2018-09-13T12:09:20.057Z,3.93
2018-09-13T12:11:49.460Z,3.63
2018-09-13T12:14:19.304Z,4.10
2018-09-13T12:16:48.845Z,3.83
2018-09-13T12:19:18.327Z,3.77
2018-09-13T12:21:47.651Z,5.07
2018-09-13T12:24:17.015Z,4.20
2018-09-13T12:26:46.269Z,3.77
2018-09-13T12:29:15.715Z,3.77
2018-09-13T12:31:45.103Z,4.13
2018-09-13T12:34:15.640Z,3.80
2018-09-13T12:36:46.026Z,3.70
2018-09-13T12:39:16.062Z,4.00
2018-09-13T12:41:45.351Z,3.87
2018-09-13T12:44:14.668Z,3.80
2018-09-13T12:46:44.049Z,3.40
2018-09-13T12:49:14.560Z,4.47
2018-09-13T12:51:44.120Z,4.07
2018-09-13T12:54:13.603Z,3.70
2018-09-13T12:56:43.319Z,4.30
2018-09-13T12:59:12.880Z,3.37
2018-09-13T13:01:43.482Z,2.90
2018-09-13T13:04:14.374Z,3.80
2018-09-13T13:06:43.799Z,3.60
2018-09-13T13:09:13.475Z,3.90
2018-09-13T13:11:42.914Z,3.37
2018-09-13T13:14:12.546Z,4.23
2018-09-13T13:16:42.321Z,4.30
2018-09-13T13:19:11.520Z,3.70
2018-09-13T13:21:40.961Z,3.40
2018-09-13T13:24:10.376Z,3.17
2018-09-13T13:26:39.836Z,4.10
2018-09-13T13:29:09.588Z,3.33
2018-09-13T13:31:38.900Z,4.00
2018-09-13T13:34:09.489Z,4.20
2018-09-13T13:36:38.979Z,4.20
2018-09-13T13:39:09.766Z,4.10
2018-09-13T13:41:40.040Z,4.23
2018-09-13T13:44:09.485Z,3.80
2018-09-13T13:46:39.827Z,3.73
2018-09-13T13:49:09.226Z,3.97
2018-09-13T13:51:38.753Z,3.77
2018-09-13T13:54:08.925Z,4.17
2018-09-13T13:56:38.491Z,4.73
2018-09-13T13:59:08.414Z,3.77
2018-09-13T14:01:38.107Z,3.80
2018-09-13T14:04:07.594Z,4.40
2018-09-13T14:06:37.973Z,3.97
2018-09-13T14:09:10.839Z,3.80
2018-09-13T14:11:40.316Z,3.90
2018-09-13T14:14:09.799Z,4.10
2018-09-13T14:16:40.926Z,3.70
2018-09-13T14:19:11.051Z,4.10
2018-09-13T14:21:40.851Z,4.53
2018-09-13T14:24:10.813Z,4.37
2018-09-13T14:26:41.284Z,4.70
2018-09-13T14:29:10.694Z,3.90
2018-09-13T14:31:41.293Z,4.43
2018-09-13T14:34:11.790Z,4.10
2018-09-13T14:36:42.187Z,4.10
2018-09-13T14:39:12.105Z,4.30
2018-09-13T14:41:42.167Z,5.03
2018-09-13T14:44:11.540Z,3.80
2018-09-13T14:46:41.104Z,4.20
2018-09-13T14:49:10.637Z,4.27
2018-09-13T14:51:40.137Z,3.73
2018-09-13T14:54:09.768Z,4.40
2018-09-13T14:56:39.160Z,4.27
2018-09-13T14:59:09.442Z,4.60
2018-09-13T15:01:38.942Z,4.60
2018-09-13T15:04:10.200Z,4.37
2018-09-13T15:06:40.234Z,3.90
2018-09-13T15:09:13.413Z,4.30
2018-09-13T15:11:42.978Z,4.27
2018-09-13T15:14:12.501Z,4.20
2018-09-13T15:16:42.596Z,4.20
2018-09-13T15:19:13.324Z,4.23
2018-09-13T15:21:44.020Z,4.00
2018-09-13T15:24:14.205Z,4.43
2018-09-13T15:26:43.855Z,4.10
2018-09-13T15:29:13.419Z,4.80
2018-09-13T15:31:43.734Z,4.33
2018-09-13T15:34:13.071Z,4.50
2018-09-13T15:36:42.566Z,4.57
2018-09-13T15:39:13.103Z,4.03
2018-09-13T15:41:42.692Z,4.00
2018-09-13T15:44:13.028Z,5.20
2018-09-13T15:46:42.465Z,4.10
2018-09-13T15:49:12.755Z,4.73
2018-09-13T15:51:42.112Z,4.27
2018-09-13T15:54:11.616Z,5.07
2018-09-13T15:56:42.082Z,4.43
2018-09-13T15:59:11.524Z,4.90
2018-09-13T16:01:40.965Z,4.43
2018-09-13T16:04:10.429Z,4.17
2018-09-13T16:06:39.823Z,5.43
2018-09-13T16:09:09.762Z,4.83
2018-09-13T16:11:39.445Z,5.80
2018-09-13T16:14:09.590Z,5.73
2018-09-13T16:16:38.955Z,6.17
2018-09-13T16:19:08.568Z,4.73
2018-09-13T16:21:38.279Z,6.17
2018-09-13T16:24:08.055Z,6.03
2018-09-13T16:26:37.634Z,6.43
2018-09-13T16:29:07.079Z,5.57
2018-09-13T16:31:36.980Z,5.80
2018-09-13T16:34:07.178Z,6.30
2018-09-13T16:36:38.041Z,6.37
2018-09-13T16:39:28.555Z,6.13
2018-09-13T16:42:03.821Z,5.60
2018-09-13T16:44:47.744Z,7.30
2018-09-13T16:47:29.711Z,6.00
2018-09-13T16:50:00.099Z,6.33
2018-09-13T16:52:30.252Z,6.50
2018-09-13T16:54:59.607Z,6.53
2018-09-13T16:57:29.180Z,6.20
2018-09-13T16:59:58.621Z,7.00
2018-09-13T17:02:28.181Z,6.60
2018-09-13T17:04:57.630Z,5.50
2018-09-13T17:07:27.179Z,6.00
2018-09-13T17:09:56.877Z,6.70
2018-09-13T17:12:26.263Z,6.40
2018-09-13T17:14:56.077Z,7.57
2018-09-13T17:17:25.669Z,6.30
2018-09-13T17:19:55.298Z,6.37
2018-09-13T17:22:24.715Z,6.33
2018-09-13T17:24:54.204Z,6.20
2018-09-13T17:27:23.956Z,5.70
2018-09-13T17:29:53.253Z,6.40
2018-09-13T17:32:22.602Z,6.83
2018-09-13T17:34:51.780Z,6.27
2018-09-13T17:37:22.334Z,6.30
2018-09-13T17:39:51.628Z,6.63
2018-09-13T17:42:21.072Z,6.47
2018-09-13T17:44:50.530Z,7.40
2018-09-13T17:47:21.064Z,6.27
2018-09-13T17:49:50.579Z,7.27
2018-09-13T17:52:19.947Z,6.80
2018-09-13T17:54:49.374Z,6.20
2018-09-13T17:57:18.998Z,6.50
2018-09-13T17:59:54.453Z,6.17
2018-09-13T18:02:26.166Z,5.87
2018-09-13T18:04:56.902Z,6.40
2018-09-13T18:07:27.573Z,4.90
2018-09-13T18:09:57.237Z,4.53
2018-09-13T18:12:26.540Z,4.90
2018-09-13T18:14:57.650Z,4.80
2018-09-13T18:17:28.568Z,4.53
2018-09-13T18:19:58.109Z,4.90
2018-09-13T18:22:28.918Z,4.07
2018-09-13T18:24:58.363Z,4.00
2018-09-13T18:27:27.863Z,4.50
2018-09-13T18:30:00.267Z,4.70
2018-09-13T18:32:30.049Z,3.10
2018-09-13T18:34:59.946Z,3.53
2018-09-13T18:37:30.313Z,4.10
2018-09-13T18:39:59.829Z,3.73
2018-09-13T18:42:29.327Z,3.43
2018-09-13T18:44:59.362Z,3.70
2018-09-13T18:47:28.913Z,4.07
2018-09-13T18:49:59.026Z,3.43
2018-09-13T18:52:29.853Z,4.17
2018-09-13T18:55:00.567Z,4.03
2018-09-13T18:57:30.137Z,3.17
2018-09-13T19:00:00.908Z,3.30
2018-09-13T19:02:31.186Z,3.50
2018-09-13T19:05:04.724Z,4.10
2018-09-13T19:07:34.896Z,4.33
2018-09-13T19:10:04.504Z,3.03
2018-09-13T19:12:33.918Z,4.23
2018-09-13T19:15:03.552Z,4.17
2018-09-13T19:17:33.145Z,3.70
2018-09-13T19:20:03.666Z,3.70
2018-09-13T19:22:34.335Z,4.27
2018-09-13T19:25:03.903Z,3.90
2018-09-13T19:27:33.629Z,3.20
2018-09-13T19:30:04.535Z,4.40
2018-09-13T19:32:34.926Z,3.10
2018-09-13T19:35:05.152Z,2.37
2018-09-13T19:37:34.604Z,3.10
2018-09-13T19:40:03.909Z,3.83
2018-09-13T19:42:33.414Z,4.60
2018-09-13T19:45:03.712Z,4.30
2018-09-13T19:47:33.672Z,4.80
2018-09-13T19:50:03.613Z,4.57
2018-09-13T19:52:34.645Z,3.50
2018-09-13T19:55:04.012Z,3.97
2018-09-13T19:57:36.018Z,3.07
2018-09-13T20:00:06.156Z,4.10
2018-09-13T20:02:37.180Z,3.90
2018-09-13T20:05:06.511Z,4.63
2018-09-13T20:07:36.513Z,5.00
2018-09-13T20:10:05.931Z,4.53
2018-09-13T20:12:35.849Z,5.63
2018-09-13T20:15:05.892Z,3.97
2018-09-13T20:17:35.359Z,4.00
2018-09-13T20:20:05.196Z,4.03
2018-09-13T20:22:34.440Z,3.80
2018-09-13T20:25:03.980Z,4.30
2018-09-13T20:27:34.916Z,3.70
2018-09-13T20:30:05.427Z,4.20
2018-09-13T20:32:35.100Z,4.87
2018-09-13T20:35:04.982Z,4.23
2018-09-13T20:37:34.461Z,5.17
2018-09-13T20:40:04.147Z,5.00
2018-09-13T20:42:34.467Z,5.10
2018-09-13T20:45:04.046Z,5.50
2018-09-13T20:47:33.605Z,5.50
2018-09-13T20:50:03.442Z,4.90
2018-09-13T20:52:33.135Z,5.67
2018-09-13T20:55:04.320Z,7.00
2018-09-13T20:57:34.579Z,5.60
2018-09-13T21:00:04.162Z,5.57
2018-09-13T21:02:33.479Z,5.67
2018-09-13T21:05:02.917Z,6.20
2018-09-13T21:07:32.033Z,5.80
2018-09-13T21:10:01.049Z,6.20
2018-09-13T21:12:30.164Z,5.90
2018-09-13T21:14:59.261Z,5.23
2018-09-13T21:17:28.465Z,5.60
2018-09-13T21:19:57.850Z,6.57
2018-09-13T21:22:26.994Z,5.33
2018-09-13T21:24:56.097Z,5.93
2018-09-13T21:27:25.171Z,5.70
2018-09-13T21:29:54.384Z,4.80
2018-09-13T21:32:23.518Z,6.00
2018-09-13T21:34:52.832Z,5.00
2018-09-13T21:37:22.188Z,5.90
2018-09-13T21:39:51.592Z,5.20
2018-09-13T21:42:20.940Z,6.37
2018-09-13T21:44:50.212Z,6.03
2018-09-13T21:47:19.535Z,6.50
2018-09-13T21:49:49.753Z,5.03
2018-09-13T21:52:19.205Z,6.43
2018-09-13T21:54:48.589Z,6.57
2018-09-13T21:57:17.941Z,6.10
2018-09-13T21:59:47.397Z,6.53
2018-09-13T22:02:17.511Z,6.57
2018-09-13T22:04:47.171Z,6.47
2018-09-13T22:07:16.588Z,6.20
2018-09-13T22:09:46.108Z,5.60
2018-09-13T22:12:15.535Z,6.53
2018-09-13T22:14:44.928Z,6.80
2018-09-13T22:17:14.350Z,6.43
2018-09-13T22:19:43.776Z,5.87
2018-09-13T22:22:13.090Z,6.80
2018-09-13T22:24:42.772Z,4.60
2018-09-13T22:27:12.216Z,5.97
2018-09-13T22:29:41.687Z,6.00
2018-09-13T22:32:10.954Z,6.53
2018-09-13T22:34:40.221Z,7.00
2018-09-13T22:37:09.592Z,5.87
2018-09-13T22:39:38.708Z,7.03
2018-09-13T22:42:08.119Z,6.70
2018-09-13T22:44:42.386Z,6.83
2018-09-13T22:47:12.347Z,5.37
2018-09-13T22:49:42.184Z,6.07
2018-09-13T22:52:11.567Z,6.57
2018-09-13T22:54:40.850Z,6.20
2018-09-13T22:57:10.096Z,6.07
2018-09-13T22:59:39.336Z,6.80
2018-09-13T23:02:09.502Z,7.07
2018-09-13T23:04:38.698Z,5.57
2018-09-13T23:07:08.028Z,6.60
2018-09-13T23:09:37.432Z,5.43
2018-09-13T23:12:06.659Z,6.27
2018-09-13T23:14:36.081Z,5.80
2018-09-13T23:17:05.462Z,5.20
2018-09-13T23:19:35.702Z,5.53
2018-09-13T23:22:06.148Z,4.90
2018-09-13T23:24:35.440Z,4.80
2018-09-13T23:27:04.773Z,5.73
2018-09-13T23:29:34.074Z,6.53
2018-09-13T23:32:03.343Z,5.93
2018-09-13T23:34:32.765Z,5.33
2018-09-13T23:37:02.807Z,6.20
2018-09-13T23:39:32.193Z,5.20
2018-09-13T23:42:01.494Z,6.50
2018-09-13T23:44:30.985Z,5.10
2018-09-13T23:47:00.504Z,5.47
2018-09-13T23:49:30.022Z,6.33
2018-09-13T23:51:59.480Z,6.03
2018-09-13T23:54:28.708Z,5.40
2018-09-13T23:56:58.015Z,6.10
2018-09-13T23:59:27.478Z,4.63
